LFOH/LEH METAR and TAF weather

Enter ICAO airport designator
Station Type Date Time Source
LFOH METAR 2022/12/04 04:30 UTC NOAA

LFOH 040430Z AUTO 07007KT 6000 OVC007 01/00 Q1012


Station Type Date Time Source
LFOH Decoded METAR 2022/12/04 04:30 UTC NOAA

La Heve, France (LFOH) 49-31N 000-04E 103M
Dec 03, 2022 - 11:30 PM EST / 2022.12.04 0430 UTC
Wind: from the ENE (070 degrees) at 8 MPH (7 KT):0
Visibility: 3 mile(s):0
Sky conditions: overcast
Temperature: 33 F (1 C)
Windchill: 26 F (-3 C):1
Dew Point: 32 F (0 C)
Relative Humidity: 93%
Pressure (altimeter): 29.88 in. Hg (1012 hPa)
ob: LFOH 040430Z AUTO 07007KT 6000 OVC007 01/00 Q1012
cycle: 4

Station Type Date Time Source
LFOH TAF 2022/12/03 19:09 UTC NOAA

TAF LFOH 031901Z 0319/0412 CNL

Example: see airport list